• Join FlightAware (Why Join?)
  • Login
  • US Flag 
01:03AM EDT


 

Airport Tracker/Info


-or-


 

Live Flight TrackerFlight Track Log ✈ SKW4763 ✈ 22-Apr-2013 ✈ KSLC - KPSP

Flight Track Log - Related Links

Times and Time Zones

All times are in EDT time to prevent confusion due to time zone crossing. See the SKW4763 flight status page for this flight to view local times or setup timezone preferences in your user account.

Time Position Orientation Groundspeed Altitude Reporting Facility
EDT Latitude Longitude Course Direction KTS MPH feet Rate Location/Type
11:53PM 40.8178 -112.0039 217° Southwest 202 232 5,100  Level Salt Lake Center
11:54PM 40.8689 -112.0658 318° Northwest 238 274 8,000 2,220 Climbing Salt Lake Center
11:55PM 40.8556 -112.1061 246° West 259 298 9,300 2,820 Climbing Salt Lake Center
11:56PM 40.5448 -112.3017 194° South  Level FlightAware Approximate
11:56PM 40.8014 -112.2017 233° Southwest 271 312 12,700  Level Salt Lake Center
11:57PM 40.4301 -112.3307 189° South  Level FlightAware Approximate
11:57PM 40.7311 -112.2467 206° Southwest 297 342 15,200  Level Salt Lake Center
11:58PM 40.3183 -112.3651 217° Southwest  Level FlightAware Approximate
11:58PM 40.6475 -112.2642 189° South 309 356 16,500  Level Salt Lake Center
11:59PM 40.5550 -112.2947 194° South 340 391 17,700 1,440 Climbing Salt Lake Center
12:00AM 40.4583 -112.3239 193° South 356 410 19,500 1,320 Climbing Salt Lake Center
12:01AM 40.3614 -112.3528 193° South 360 414 20,500 1,200 Climbing Salt Lake Center
12:02AM 40.2708 -112.4053 204° Southwest 356 410 22,000 1,200 Climbing Salt Lake Center
12:03AM 40.1847 -112.4661 208° Southwest 352 405 23,000 1,260 Climbing Salt Lake Center
12:04AM 40.0972 -112.5269 208° Southwest 353 406 24,600 1,260 Climbing Salt Lake Center
12:05AM 40.0125 -112.5861 208° Southwest 346 398 25,600 1,020 Climbing Salt Lake Center
12:06AM 39.9108 -112.6592 209° Southwest 348 400 26,700 1,020 Climbing Salt Lake Center
12:07AM 39.8219 -112.7169 207° Southwest 352 405 27,700 780 Climbing Salt Lake Center
12:08AM 39.7458 -112.7697 208° Southwest 358 412 28,300 540 Climbing Salt Lake Center
12:09AM 39.6311 -112.8339 203° Southwest 380 437 28,800 480 Climbing Salt Lake Center
12:10AM 39.5239 -112.8692 194° South 398 458 29,300 420 Climbing Salt Lake Center
12:11AM 39.4153 -112.9050 194° South 403 464 29,700 540 Climbing Salt Lake Center
12:12AM 39.3047 -112.9417 194° South 407 468 30,400 840 Climbing Salt Lake Center
12:13AM 39.1975 -112.9783 195° South 401 461 31,500 660 Climbing Salt Lake Center
12:14AM 39.0922 -113.0111 194° South 392 451 31,800 240 Climbing Salt Lake Center
12:15AM 38.9839 -113.0439 193° South 397 457 32,000 60 Climbing Salt Lake Center
12:16AM 38.8728 -113.0786 194° South 407 468 32,000  Level Salt Lake Center
12:17AM 38.7583 -113.1167 195° South 420 483 32,000  Level Salt Lake Center
12:18AM 38.6433 -113.1519 193° South 426 490 32,000  Level Salt Lake Center
12:19AM 38.5044 -113.1967 194° South 429 494 32,000  Level Salt Lake Center
12:20AM 38.3864 -113.2350 194° South 436 502 32,000  Level Salt Lake Center
12:21AM 38.2703 -113.2717 194° South 432 497 32,000  Level Salt Lake Center
12:22AM 38.1547 -113.3067 193° South 429 494 32,000  Level Salt Lake Center
12:23AM 38.0417 -113.3431 194° South 425 489 32,000  Level Salt Lake Center
12:24AM 37.9303 -113.3778 194° South 418 481 32,000  Level Salt Lake Center
12:25AM 37.8325 -113.4389 206° Southwest 399 459 32,000  Level Salt Lake Center
12:26AM 37.7428 -113.5114 213° Southwest 387 445 32,000  Level Salt Lake Center
12:27AM 37.6508 -113.5842 212° Southwest 390 449 32,000  Level Salt Lake Center
12:28AM 37.5397 -113.6728 212° Southwest 395 455 32,000  Level Salt Lake Center
12:29AM 37.4453 -113.7464 212° Southwest 399 459 32,000  Level Salt Lake Center
12:30AM 37.3497 -113.8228 212° Southwest 406 467 32,000  Level Salt Lake Center
12:31AM 37.2542 -113.8981 212° Southwest 406 467 32,000  Level Salt Lake Center
12:32AM 37.1597 -113.9728 212° Southwest 404 465 32,000  Level Salt Lake Center
12:33AM 37.0861 -114.0300 212° Southwest 408 470 32,000  Level Los Angeles Center
12:34AM 36.9875 -114.1033 211° Southwest 410 472 32,000  Level Los Angeles Center
12:35AM 36.8889 -114.1786 211° Southwest 413 475 32,000  Level Los Angeles Center
12:36AM 36.7725 -114.2700 212° Southwest 410 472 32,000  Level Los Angeles Center
12:37AM 36.6742 -114.3453 212° Southwest 413 475 32,000  Level Los Angeles Center
12:38AM 36.5756 -114.4214 212° Southwest 415 478 32,000  Level Los Angeles Center
12:39AM 36.4764 -114.4975 212° Southwest 417 480 32,000  Level Los Angeles Center
12:40AM 36.3789 -114.5733 212° Southwest 413 475 32,000  Level Los Angeles Center
12:41AM 36.2781 -114.6500 212° Southwest 419 482 32,000  Level Los Angeles Center
12:42AM 36.1758 -114.7269 211° Southwest 424 488 32,000  Level Los Angeles Center
12:43AM 36.0725 -114.8050 211° Southwest 430 495 32,000  Level Los Angeles Center
12:44AM 35.9658 -114.8756 208° Southwest 433 498 32,000  Level Los Angeles Center
12:45AM 35.8472 -114.9181 196° South 440 506 32,000  Level Los Angeles Center
12:46AM 35.7281 -114.9608 196° South 443 510 32,000  Level Los Angeles Center
12:47AM 35.6097 -115.0031 196° South 441 507 32,000  Level Los Angeles Center
12:48AM 35.4908 -115.0456 196° South 442 509 32,000  Level Los Angeles Center
12:49AM 35.3728 -115.0889 197° South 441 507 32,000  Level Los Angeles Center
12:50AM 35.2308 -115.1406 197° South 442 509 32,000 -540 Level Los Angeles Center
12:51AM 35.1125 -115.1822 196° South 443 510 30,900 -1,080 Descending Los Angeles Center
12:52AM 35.0025 -115.2317 200° South 429 494 29,900 -1,020 Descending Los Angeles Center
12:53AM 34.8947 -115.2792 200° South 415 478 28,900 -1,020 Descending Los Angeles Center
12:54AM 34.7864 -115.3267 200° South 414 476 27,900 -1,020 Descending Los Angeles Center
12:55AM 34.6758 -115.3756 200° South 419 482 26,900 -1,020 Descending Los Angeles Center
12:56AM 34.5694 -115.4208 199° South 416 479 25,900 -1,320 Descending Los Angeles Center
12:57AM 34.4597 -115.4700 200° South 421 484 24,300 -1,980 Descending Los Angeles Center
12:58AM 34.3450 -115.5194 200° South 434 499 21,900 -2,460 Descending Los Angeles Center
01:00AM 34.2575 -115.6056 219° Southwest 408 470 19,400 -2,580 Descending Los Angeles Center
01:01AM 34.1775 -115.6944 223° Southwest 394 453 16,700 -2,640 Descending Los Angeles Center
01:02AM 34.0817 -115.7933 221° Southwest 380 437 14,100 -2,160 Descending Los Angeles Center
01:03AM 34.0006 -115.8575 213° Southwest 356 410 12,400 -1,560 Descending Los Angeles Center
01:04AM 33.9306 -115.9161 215° Southwest 319 367 11,000 -1,380 Descending Los Angeles Center
01:05AM 33.8886 -115.9869 235° Southwest 285 328 9,600 -1,500 Descending Los Angeles Center
01:06AM 33.8650 -116.0700 251° West 273 314 8,000 -1,620 Descending Los Angeles Center
01:07AM 33.8411 -116.1494 250° West 263 303 6,400 -1,140 Descending Los Angeles Center
01:08AM 33.8206 -116.2211 251° West 259 298 5,800 -1,020 Descending Los Angeles Center
01:10AM 33.7667 -116.3833 248° West 196 226 2,900 -1,140 Descending Southern California TRACON
01:11AM 33.7667 -116.4333 270° West 179 206 2,000 -900 Descending Southern California TRACON